Kezdőlap
METAR-TAF:

METAR-TAF

Repülőterek :

Zsolna, Szlovákia

földrajzi szélesség: 49-14N, földrajzi hosszúság: 018-36-49E, magasság: 312 m

Jelenlegi meteorológiai megfigyelések

A jelentés 20 perccel ezelõtt készült, 05:00 UTC
Kelet-északkeleti szél 3 kt
Hőmérséklet 12°C
Páratartalom 88%
Légköri nyomás 1014 hPa
Látótávolság 10 km, vagy több
felhőtlen 1500 m magasságban, és nincs gomolyfelhõ

METAR: LZZI 150500Z 07003KT CAVOK 12/10 Q1014

Idő: 07:20 (05:20 UTC)

Előrejelzés

A jelentés 3 órával és 5 perccel ezelõtt készült, 02:15 UTC
Az előrejelzés 15-én 03 óra UTC és 15-én 12 óra UTC között érvényes
Különbözõ irányokból fújó szél 2 kt
Látótávolság 10 km, vagy több
felhőtlen 1500 m magasságban, és nincs gomolyfelhõ
15-én 08 óra UTC és 15-én 10 óra UTC között fokozatosan kialakuló
Déli szél 7 kt

TAF: LZZI 150215Z 1503/1512 VRB02KT CAVOK BECMG 1508/1510 19007KT

Meteorológiai megfigyelések és előrejelzések több, mint 4000 repülőtéren (METAR és TAF jelentéseket).

A térképen piros és sárga pontok jelzik az elérhető meteorológiai állomásokat.

Mozgassa az egeret a pont fölött, hogy megjelenjen az állomás neve.

Azután kattintson az időjárási megfigyelések és előrejelzések megtekintéséhez.

A térkép megváltoztatása: kattintson a fekete keresztel jelölt zöld gombra ráközelítéshez, a vonallal jelölt zöld gombra távolításhoz, vagy a zöld nyilakra a szomszédos térképek eléréséhez.


METAR-TAF: